Time;durP1;ratioP1;P1;durP2;ratioP2;P2;SDS_P1;SDS_P2;PMS_P1;PMS_P2;Temp;Humidity;BMP_temperature;BMP_pressure;BME280_temperature;BME280_humidity;BME280_pressure;Samples;Min_cycle;Max_cycle;Signal;HPM_P1;HPM_P2
2023/03/17 00:01:43;;;;;;;66.50;25.10;;;;;;;-1.60;73.46;99233.63;104796;1261;96571;-70
2023/03/17 00:04:12;;;;;;;70.30;29.80;;;;;;;-1.54;72.83;99236.73;104743;1254;109849;-72
2023/03/17 00:06:40;;;;;;;84.40;32.10;;;;;;;-1.55;73.00;99237.71;104949;1259;99190;-73
2023/03/17 00:09:13;;;;;;;83.20;30.40;;;;;;;-1.61;73.47;99238.98;105005;1259;108480;-71
2023/03/17 00:11:42;;;;;;;88.30;33.40;;;;;;;-1.67;73.58;99245.14;104848;1256;96502;-71
2023/03/17 00:14:09;;;;;;;80.60;33.60;;;;;;;-1.68;73.28;99243.87;105031;1258;96688;-66
2023/03/17 00:16:40;;;;;;;96.70;35.70;;;;;;;-1.71;73.06;99246.08;105018;1258;97082;-67
2023/03/17 00:19:16;;;;;;;93.00;37.30;;;;;;;-1.78;72.91;99243.64;105025;1258;99303;-68
2023/03/17 00:21:47;;;;;;;97.80;36.20;;;;;;;-1.89;72.88;99248.98;104923;1258;108871;-69
2023/03/17 00:24:14;;;;;;;106.20;39.00;;;;;;;-1.94;73.03;99254.16;104994;1258;96674;-68
2023/03/17 00:26:42;;;;;;;98.60;38.90;;;;;;;-1.98;72.98;99257.80;104713;1258;97874;-70
2023/03/17 00:29:09;;;;;;;105.80;42.40;;;;;;;-2.05;72.95;99258.73;104990;1270;96676;-68
2023/03/17 00:31:38;;;;;;;116.60;41.30;;;;;;;-2.12;72.90;99263.03;104796;1257;97851;-68
2023/03/17 00:34:06;;;;;;;110.40;43.20;;;;;;;-2.19;73.03;99262.03;104858;1265;107386;-69
2023/03/17 00:36:34;;;;;;;123.10;46.10;;;;;;;-2.28;73.28;99268.16;104895;1261;96740;-69
2023/03/17 00:39:02;;;;;;;129.00;49.00;;;;;;;-2.38;73.66;99270.05;105010;1263;96592;-70
2023/03/17 00:41:29;;;;;;;130.70;48.70;;;;;;;-2.46;73.82;99266.55;105017;1268;110956;-68
2023/03/17 00:43:57;;;;;;;134.00;51.10;;;;;;;-2.54;73.84;99262.39;104945;1254;96512;-71
2023/03/17 00:46:27;;;;;;;138.60;52.20;;;;;;;-2.62;74.17;99262.96;104919;1259;97852;-67
2023/03/17 00:49:22;;;;;;;133.00;53.30;;;;;;;-2.69;74.33;99260.59;104848;1269;96633;-73
2023/03/17 00:51:53;;;;;;;137.00;51.30;;;;;;;-2.69;74.43;99262.49;104811;1259;96994;-72
2023/03/17 00:54:26;;;;;;;117.90;48.00;;;;;;;-2.77;74.90;99261.36;104962;1258;112434;-72
2023/03/17 00:57:01;;;;;;;112.60;41.80;;;;;;;-2.81;75.34;99252.99;104890;1259;99330;-71
2023/03/17 00:59:41;;;;;;;115.80;40.10;;;;;;;-2.79;75.78;99251.67;104980;1258;108577;-68
2023/03/17 01:02:12;;;;;;;104.50;41.30;;;;;;;-2.76;76.19;99251.38;104772;1262;96628;-73
2023/03/17 01:04:40;;;;;;;115.00;41.90;;;;;;;-2.69;76.57;99248.00;105039;1260;96938;-71
2023/03/17 01:07:12;;;;;;;104.90;36.80;;;;;;;-2.59;76.99;99240.94;104949;1259;110810;-68
2023/03/17 01:09:40;;;;;;;97.20;37.70;;;;;;;-2.51;77.43;99241.98;104880;1268;97846;-73
2023/03/17 01:12:11;;;;;;;103.10;39.30;;;;;;;-2.44;76.91;99235.11;104948;1256;96585;-72
2023/03/17 01:14:39;;;;;;;104.80;38.00;;;;;;;-2.41;76.81;99232.34;104874;1269;97351;-72
2023/03/17 01:17:15;;;;;;;104.00;37.90;;;;;;;-2.39;77.02;99229.75;104902;1262;97842;-66
2023/03/17 01:19:44;;;;;;;98.40;38.00;;;;;;;-2.40;77.75;99230.45;104880;1260;110867;-64
2023/03/17 01:22:12;;;;;;;95.50;37.70;;;;;;;-2.41;77.76;99231.67;104954;1258;99250;-68
2023/03/17 01:24:39;;;;;;;87.60;33.80;;;;;;;-2.36;77.23;99232.17;104949;1261;108161;-73
2023/03/17 01:27:07;;;;;;;93.10;34.60;;;;;;;-2.31;77.13;99228.52;104936;1259;97848;-70
2023/03/17 01:29:34;;;;;;;91.10;34.20;;;;;;;-2.32;77.66;99222.48;104974;1258;96676;-71
2023/03/17 01:32:01;;;;;;;89.50;34.70;;;;;;;-2.30;77.47;99222.18;104908;1269;96559;-72
2023/03/17 01:34:28;;;;;;;77.80;30.30;;;;;;;-2.27;77.39;99223.95;104865;1268;96657;-70
2023/03/17 01:36:55;;;;;;;61.50;25.60;;;;;;;-2.25;77.78;99229.27;104760;1268;96565;-73
2023/03/17 01:39:22;;;;;;;67.60;26.30;;;;;;;-2.24;77.76;99236.41;104966;1270;97163;-70
2023/03/17 01:41:49;;;;;;;87.40;34.80;;;;;;;-2.24;77.65;99234.71;105004;1259;96567;-72
2023/03/17 01:44:18;;;;;;;71.20;27.10;;;;;;;-2.23;77.44;99232.77;104988;1257;97388;-71
2023/03/17 01:46:46;;;;;;;61.50;27.10;;;;;;;-2.27;77.89;99240.10;104890;1268;96579;-73
2023/03/17 01:49:23;;;;;;;68.80;25.30;;;;;;;-2.28;77.46;99228.73;104825;1264;96569;-75
2023/03/17 01:52:13;;;;;;;59.90;26.80;;;;;;;-2.26;77.62;99222.25;104679;1261;96653;-73
2023/03/17 01:55:09;;;;;;;61.00;25.70;;;;;;;-2.26;77.36;99225.92;104921;1278;97222;-70
2023/03/17 01:57:50;;;;;;;69.90;26.10;;;;;;;-2.26;77.34;99226.92;105078;1261;109284;-71
2023/03/17 02:00:22;;;;;;;66.40;25.40;;;;;;;-2.30;77.41;99227.42;105051;1269;99180;-71
2023/03/17 02:02:52;;;;;;;81.00;31.40;;;;;;;-2.35;77.38;99222.95;104765;1260;108014;-73
2023/03/17 02:05:22;;;;;;;86.80;32.70;;;;;;;-2.39;77.32;99217.77;104997;1258;96653;-73
2023/03/17 02:07:51;;;;;;;98.70;38.10;;;;;;;-2.43;77.09;99216.14;105006;1257;96570;-74
2023/03/17 02:10:20;;;;;;;109.10;39.60;;;;;;;-2.45;77.16;99219.29;104994;1259;110937;-72
2023/03/17 02:12:52;;;;;;;76.70;31.70;;;;;;;-2.47;77.15;99216.16;104942;1258;99204;-73
2023/03/17 02:15:21;;;;;;;106.40;40.70;;;;;;;-2.50;77.09;99208.66;104760;1260;108634;-71
2023/03/17 02:17:48;;;;;;;105.40;40.10;;;;;;;-2.52;76.92;99202.48;104872;1256;97754;-74
2023/03/17 02:20:15;;;;;;;101.30;34.60;;;;;;;-2.53;77.55;99185.55;104847;1259;96828;-73
2023/03/17 02:22:46;;;;;;;96.20;35.80;;;;;;;-2.54;77.60;99181.14;105007;1258;97890;-73
2023/03/17 02:25:13;;;;;;;102.70;38.70;;;;;;;-2.54;77.37;99181.96;104972;1259;99131;-72
2023/03/17 02:27:45;;;;;;;68.80;26.40;;;;;;;-2.55;77.75;99178.50;104874;1268;96556;-73
2023/03/17 02:30:15;;;;;;;94.20;36.70;;;;;;;-2.54;77.87;99178.49;105014;1259;96540;-71
2023/03/17 02:32:42;;;;;;;108.20;39.80;;;;;;;-2.54;77.45;99169.54;105032;1265;96820;-73
2023/03/17 02:35:10;;;;;;;97.60;39.20;;;;;;;-2.54;77.31;99164.66;104922;1268;96573;-72
2023/03/17 02:37:37;;;;;;;100.30;39.10;;;;;;;-2.53;77.54;99167.27;104856;1269;98894;-71
2023/03/17 02:40:06;;;;;;;103.70;39.50;;;;;;;-2.52;77.37;99166.52;104968;1260;108793;-73
2023/03/17 02:42:34;;;;;;;85.50;31.00;;;;;;;-2.51;77.40;99159.49;104833;1268;96617;-71
2023/03/17 02:45:01;;;;;;;93.50;34.00;;;;;;;-2.56;77.65;99157.98;105000;1265;96616;-72
2023/03/17 02:47:28;;;;;;;96.20;36.40;;;;;;;-2.56;77.90;99152.58;105030;1258;96502;-71
2023/03/17 02:49:55;;;;;;;70.70;29.70;;;;;;;-2.54;77.61;99138.91;104894;1254;96575;-73
2023/03/17 02:52:23;;;;;;;77.70;29.30;;;;;;;-2.54;77.89;99138.24;105089;1259;96568;-74
2023/03/17 02:54:50;;;;;;;71.00;31.60;;;;;;;-2.59;77.60;99132.77;105125;1267;96694;-73
2023/03/17 02:57:18;;;;;;;83.30;35.10;;;;;;;-2.65;77.77;99147.27;104882;1258;96565;-72
2023/03/17 02:59:45;;;;;;;87.10;35.60;;;;;;;-2.68;77.85;99156.11;104749;1268;97882;-72
2023/03/17 03:02:13;;;;;;;99.80;38.70;;;;;;;-2.74;77.40;99161.42;105036;1267;97506;-73
2023/03/17 03:04:40;;;;;;;96.00;37.90;;;;;;;-2.77;77.27;99164.95;105057;1258;97377;-73
2023/03/17 03:07:08;;;;;;;96.20;37.10;;;;;;;-2.83;77.27;99170.73;105012;1268;96559;-71
2023/03/17 03:09:36;;;;;;;95.10;38.60;;;;;;;-2.87;77.26;99172.41;104714;1254;97776;-73
2023/03/17 03:12:05;;;;;;;99.80;37.90;;;;;;;-2.94;77.49;99172.97;104987;1267;111349;-74
2023/03/17 03:14:32;;;;;;;107.00;41.90;;;;;;;-3.04;77.52;99172.02;104874;1258;98669;-77
2023/03/17 03:16:59;;;;;;;113.30;41.70;;;;;;;-3.11;77.71;99165.81;104971;1259;96521;-73
2023/03/17 03:19:26;;;;;;;108.10;38.90;;;;;;;-3.19;77.87;99167.02;104956;1257;97897;-74
2023/03/17 03:21:53;;;;;;;107.60;41.10;;;;;;;-3.24;77.87;99173.11;105048;1265;96556;-72
2023/03/17 03:24:20;;;;;;;96.40;38.30;;;;;;;-3.28;77.81;99172.41;104985;1264;97465;-74
2023/03/17 03:26:47;;;;;;;97.50;40.50;;;;;;;-3.33;78.04;99174.02;104989;1259;96553;-74
2023/03/17 03:29:14;;;;;;;104.50;40.90;;;;;;;-3.35;77.96;99174.48;104983;1259;96629;-74
2023/03/17 03:31:41;;;;;;;100.90;42.00;;;;;;;-3.35;78.06;99169.79;105065;1261;96763;-75
2023/03/17 03:34:08;;;;;;;106.40;43.60;;;;;;;-3.33;78.15;99177.79;104839;1254;110075;-73
2023/03/17 03:36:35;;;;;;;115.20;43.70;;;;;;;-3.33;78.19;99178.95;104904;1260;97860;-74
2023/03/17 03:39:02;;;;;;;112.20;43.20;;;;;;;-3.33;78.24;99177.38;104993;1259;97878;-73
2023/03/17 03:41:30;;;;;;;122.80;45.50;;;;;;;-3.33;78.25;99180.21;104973;1260;97492;-75
2023/03/17 03:43:57;;;;;;;109.90;43.20;;;;;;;-3.34;78.21;99180.34;104914;1254;97891;-75
2023/03/17 03:46:25;;;;;;;112.80;42.80;;;;;;;-3.36;78.41;99182.48;104924;1269;96569;-75
2023/03/17 03:48:53;;;;;;;134.10;48.00;;;;;;;-3.41;78.73;99184.36;104942;1260;96725;-75
2023/03/17 03:51:20;;;;;;;117.50;44.30;;;;;;;-3.47;79.21;99174.02;104963;1259;108377;-75
2023/03/17 03:53:47;;;;;;;113.30;44.80;;;;;;;-3.53;79.69;99166.77;104770;1258;97386;-76
2023/03/17 03:56:14;;;;;;;127.70;50.10;;;;;;;-3.53;79.99;99169.83;104890;1268;96636;-73
2023/03/17 03:58:41;;;;;;;114.80;46.80;;;;;;;-3.45;80.11;99178.46;104987;1259;96569;-71
2023/03/17 04:01:09;;;;;;;113.40;39.80;;;;;;;-3.37;79.74;99179.36;104933;1268;96666;-73
2023/03/17 04:03:37;;;;;;;120.10;46.40;;;;;;;-3.34;79.82;99178.40;105014;1259;96587;-74
2023/03/17 04:06:05;;;;;;;109.40;42.20;;;;;;;-3.32;79.92;99173.29;104846;1259;96576;-73
2023/03/17 04:08:32;;;;;;;98.90;40.80;;;;;;;-3.29;79.65;99175.64;104933;1268;96657;-73
2023/03/17 04:10:59;;;;;;;101.60;38.30;;;;;;;-3.29;79.54;99172.78;105002;1258;96908;-73
2023/03/17 04:13:26;;;;;;;100.40;40.60;;;;;;;-3.33;80.12;99167.08;105027;1259;97490;-73
2023/03/17 04:15:54;;;;;;;70.20;32.10;;;;;;;-3.38;80.62;99163.08;105004;1260;96706;-72
2023/03/17 04:18:21;;;;;;;87.50;40.40;;;;;;;-3.40;80.56;99166.70;104910;1268;96565;-73
2023/03/17 04:20:48;;;;;;;94.30;39.10;;;;;;;-3.40;80.21;99165.42;105047;1268;97398;-73
2023/03/17 04:23:15;;;;;;;97.30;38.80;;;;;;;-3.40;79.84;99163.06;104756;1267;97598;-72
2023/03/17 04:25:41;;;;;;;102.20;41.30;;;;;;;-3.41;79.85;99160.94;104762;1259;96579;-73
2023/03/17 04:28:09;;;;;;;66.50;27.50;;;;;;;-3.41;79.88;99168.60;104828;1269;96658;-72
2023/03/17 04:30:37;;;;;;;62.90;28.50;;;;;;;-3.44;79.94;99165.23;104712;1262;96594;-72
2023/03/17 04:33:04;;;;;;;86.60;36.30;;;;;;;-3.43;80.00;99168.23;104840;1259;96560;-75
2023/03/17 04:35:31;;;;;;;97.70;38.30;;;;;;;-3.44;79.85;99161.93;104902;1269;97799;-73
2023/03/17 04:37:58;;;;;;;100.50;40.20;;;;;;;-3.45;79.80;99161.10;104877;1260;96577;-76
2023/03/17 04:40:25;;;;;;;98.80;36.60;;;;;;;-3.41;79.92;99156.40;104869;1265;96936;-73
2023/03/17 04:42:52;;;;;;;94.90;35.20;;;;;;;-3.38;80.35;99158.38;104992;1271;96586;-73
2023/03/17 04:45:19;;;;;;;90.70;38.90;;;;;;;-3.38;80.25;99165.71;105006;1267;96582;-72
2023/03/17 04:47:46;;;;;;;104.20;39.70;;;;;;;-3.36;80.03;99165.95;105072;1259;96621;-73
2023/03/17 04:50:13;;;;;;;100.50;40.00;;;;;;;-3.34;79.82;99169.48;104728;1270;373630;-70
2023/03/17 04:52:41;;;;;;;86.10;39.40;;;;;;;-3.31;79.72;99172.14;105095;1269;96648;-73
2023/03/17 04:55:10;;;;;;;104.80;39.30;;;;;;;-3.30;79.35;99178.89;105119;1258;110871;-73
2023/03/17 04:57:37;;;;;;;97.50;37.00;;;;;;;-3.28;79.24;99171.89;105112;1257;99121;-73
2023/03/17 05:00:06;;;;;;;101.80;37.60;;;;;;;-3.25;79.11;99173.44;105077;1259;97865;-74
2023/03/17 05:02:34;;;;;;;102.60;38.90;;;;;;;-3.19;79.04;99174.88;105037;1266;96603;-73
2023/03/17 05:05:01;;;;;;;99.80;37.40;;;;;;;-3.16;78.94;99174.52;105098;1258;96957;-74
2023/03/17 05:07:33;;;;;;;95.20;35.80;;;;;;;-3.16;78.78;99174.90;105073;1267;110420;-73
2023/03/17 05:10:01;;;;;;;87.60;37.10;;;;;;;-3.20;78.80;99172.80;105045;1257;96547;-73
2023/03/17 05:12:28;;;;;;;88.90;36.20;;;;;;;-3.24;78.79;99171.38;105022;1266;97080;-70
2023/03/17 05:14:55;;;;;;;75.00;34.70;;;;;;;-3.32;78.74;99168.96;104998;1267;96596;-73
2023/03/17 05:17:22;;;;;;;101.40;41.00;;;;;;;-3.41;78.76;99169.39;105025;1270;97067;-73
2023/03/17 05:19:49;;;;;;;78.80;34.90;;;;;;;-3.44;79.14;99166.50;104981;1260;97482;-73
2023/03/17 05:22:16;;;;;;;90.80;37.70;;;;;;;-3.45;79.17;99169.27;105080;1268;97087;-74
2023/03/17 05:24:43;;;;;;;83.00;31.50;;;;;;;-3.49;79.28;99166.89;104985;1259;96632;-73
2023/03/17 05:27:10;;;;;;;87.80;37.30;;;;;;;-3.54;79.51;99170.52;104967;1271;96558;-73
2023/03/17 05:29:38;;;;;;;83.80;36.00;;;;;;;-3.53;79.48;99171.85;105013;1265;97483;-74
2023/03/17 05:32:05;;;;;;;81.40;34.60;;;;;;;-3.54;79.82;99174.77;105054;1267;96482;-71
2023/03/17 05:34:32;;;;;;;86.70;34.20;;;;;;;-3.54;80.60;99173.75;105093;1259;96657;-72
2023/03/17 05:37:00;;;;;;;65.30;28.50;;;;;;;-3.52;80.67;99174.60;105065;1258;96470;-73
2023/03/17 05:39:27;;;;;;;72.20;32.40;;;;;;;-3.49;81.03;99177.58;104977;1267;97342;-73
2023/03/17 05:41:55;;;;;;;72.50;30.20;;;;;;;-3.47;81.14;99173.19;105068;1260;96573;-75
2023/03/17 05:44:23;;;;;;;88.00;34.10;;;;;;;-3.44;81.12;99171.30;105067;1259;97046;-74
2023/03/17 05:46:50;;;;;;;81.80;31.60;;;;;;;-3.39;81.14;99175.45;104973;1262;107620;-71
2023/03/17 05:49:17;;;;;;;63.70;25.00;;;;;;;-3.32;81.06;99176.13;104973;1265;96594;-71
2023/03/17 05:51:45;;;;;;;70.30;29.20;;;;;;;-3.25;81.06;99175.42;104977;1267;97461;-75
2023/03/17 05:54:12;;;;;;;37.80;17.30;;;;;;;-3.17;81.12;99182.95;104939;1260;97261;-74
2023/03/17 05:56:40;;;;;;;95.00;35.30;;;;;;;-3.09;81.01;99180.37;105010;1260;96554;-67
2023/03/17 05:59:09;;;;;;;99.10;39.00;;;;;;;-2.99;80.47;99186.90;105179;1259;96654;-76
2023/03/17 06:01:36;;;;;;;84.40;31.90;;;;;;;-2.87;80.45;99191.77;105110;1259;96719;-73
2023/03/17 06:04:03;;;;;;;92.10;35.60;;;;;;;-2.77;79.99;99186.06;105133;1260;96660;-74
2023/03/17 06:06:31;;;;;;;83.10;34.70;;;;;;;-2.67;79.73;99183.60;105036;1266;96642;-75
2023/03/17 06:08:58;;;;;;;46.00;19.60;;;;;;;-2.58;79.76;99185.12;105047;1270;96507;-74
2023/03/17 06:11:26;;;;;;;79.30;32.40;;;;;;;-2.52;79.33;99186.74;105045;1261;96649;-76
2023/03/17 06:13:53;;;;;;;54.60;24.60;;;;;;;-2.45;79.19;99185.42;105150;1260;96645;-74
2023/03/17 06:16:21;;;;;;;75.80;30.50;;;;;;;-2.38;79.16;99183.23;104919;1258;96555;-75
2023/03/17 06:18:48;;;;;;;71.50;31.20;;;;;;;-2.32;79.17;99182.39;104982;1260;110105;-76
2023/03/17 06:21:15;;;;;;;71.20;27.90;;;;;;;-2.27;79.08;99179.00;104875;1268;97848;-73
2023/03/17 06:23:43;;;;;;;78.70;32.50;;;;;;;-2.21;78.87;99177.48;105014;1267;96553;-73
2023/03/17 06:26:10;;;;;;;51.80;22.70;;;;;;;-2.15;78.74;99185.63;104995;1260;96642;-75
2023/03/17 06:28:37;;;;;;;74.10;30.00;;;;;;;-2.08;78.78;99176.35;105059;1267;97999;-77
2023/03/17 06:31:04;;;;;;;74.50;29.60;;;;;;;-1.99;78.70;99181.17;105025;1262;96494;-77
2023/03/17 06:33:34;;;;;;;51.90;22.50;;;;;;;-1.88;78.32;99181.85;105119;1267;99263;-78
2023/03/17 06:36:02;;;;;;;66.10;26.70;;;;;;;-1.82;78.27;99181.33;104951;1260;107696;-75
2023/03/17 06:38:29;;;;;;;73.20;29.70;;;;;;;-1.72;78.16;99184.48;105025;1257;96481;-78
2023/03/17 06:40:56;;;;;;;48.80;22.40;;;;;;;-1.59;77.92;99184.20;104977;1260;96745;-78
2023/03/17 06:43:24;;;;;;;55.00;23.80;;;;;;;-1.49;76.98;99183.49;104992;1268;96833;-77
2023/03/17 06:45:51;;;;;;;59.60;25.40;;;;;;;-1.39;76.46;99184.23;105060;1259;97674;-80
2023/03/17 06:48:18;;;;;;;57.40;25.80;;;;;;;-1.25;76.21;99184.99;105005;1258;97354;-82
2023/03/17 06:50:49;;;;;;;62.50;29.00;;;;;;;-1.17;76.37;99188.61;105010;1270;96628;-78
2023/03/17 06:53:16;;;;;;;55.70;24.80;;;;;;;-0.98;76.44;99188.44;105048;1257;96567;-82
2023/03/17 06:55:43;;;;;;;58.80;27.70;;;;;;;-0.80;75.22;99180.17;105080;1269;97385;-77
2023/03/17 06:58:12;;;;;;;55.40;23.50;;;;;;;-0.68;74.75;99178.61;105109;1266;99308;-80
2023/03/17 07:00:39;;;;;;;66.40;28.60;;;;;;;-0.55;74.35;99186.24;105099;1258;108703;-80
2023/03/17 07:03:06;;;;;;;59.00;24.30;;;;;;;-0.46;73.82;99191.17;105116;1267;96495;-80
2023/03/17 07:05:33;;;;;;;56.10;25.00;;;;;;;-0.37;73.60;99188.77;105072;1255;96569;-80
2023/03/17 07:08:00;;;;;;;58.90;24.50;;;;;;;-0.22;73.73;99192.52;104829;1266;97859;-78
2023/03/17 07:10:27;;;;;;;55.00;26.10;;;;;;;-0.04;73.16;99191.49;104969;1266;96534;-79
2023/03/17 07:12:55;;;;;;;54.00;23.70;;;;;;;0.15;73.57;99190.52;104934;1261;97554;-80
2023/03/17 07:15:22;;;;;;;63.10;28.10;;;;;;;0.30;72.64;99193.18;105050;1267;97899;-80
2023/03/17 07:17:50;;;;;;;34.70;15.10;;;;;;;0.42;72.37;99196.55;104990;1260;96628;-78
2023/03/17 07:20:17;;;;;;;63.60;26.10;;;;;;;0.49;72.22;99198.72;105105;1268;97877;-86
2023/03/17 07:22:45;;;;;;;49.90;24.60;;;;;;;0.65;71.78;99198.81;105115;1267;96957;-74
2023/03/17 07:25:15;;;;;;;44.50;20.60;;;;;;;0.77;71.12;99200.59;104973;1257;96761;-71
2023/03/17 07:27:55;;;;;;;53.80;26.00;;;;;;;0.88;70.53;99205.04;105051;1261;97499;-78
2023/03/17 07:30:35;;;;;;;48.30;23.50;;;;;;;1.03;70.61;99201.04;105088;1257;96568;-78
2023/03/17 07:33:10;;;;;;;58.80;25.90;;;;;;;1.27;71.59;99206.67;104984;1267;110870;-79
2023/03/17 07:35:37;;;;;;;43.30;19.70;;;;;;;1.59;70.82;99212.14;105088;1264;99187;-76
2023/03/17 07:38:04;;;;;;;48.20;21.80;;;;;;;1.78;68.83;99212.19;104982;1271;96628;-78
2023/03/17 07:40:31;;;;;;;43.40;22.10;;;;;;;1.82;68.16;99209.45;105024;1260;96746;-78
2023/03/17 07:43:01;;;;;;;44.20;21.70;;;;;;;2.01;69.35;99207.47;105047;1257;96566;-79
2023/03/17 07:45:28;;;;;;;38.00;17.90;;;;;;;2.34;69.45;99207.52;105076;1267;109936;-76
2023/03/17 07:47:56;;;;;;;46.20;20.10;;;;;;;2.59;67.80;99203.48;104970;1259;99192;-81
2023/03/17 07:50:23;;;;;;;35.70;19.10;;;;;;;2.90;68.05;99206.80;104984;1257;106646;-82
2023/03/17 07:52:50;;;;;;;35.40;18.30;;;;;;;3.15;64.43;99207.23;105043;1267;96665;-80
2023/03/17 07:55:17;;;;;;;34.70;16.90;;;;;;;3.33;64.82;99202.10;105114;1258;96673;-82
2023/03/17 07:57:45;;;;;;;38.50;18.80;;;;;;;3.60;64.60;99201.20;105026;1257;96591;-82
2023/03/17 08:00:13;;;;;;;40.30;20.70;;;;;;;3.84;64.03;99204.77;105125;1258;96673;-82
2023/03/17 08:02:40;;;;;;;40.40;18.70;;;;;;;4.12;64.25;99205.42;104969;1270;97138;-82
2023/03/17 08:05:08;;;;;;;45.50;19.50;;;;;;;4.31;61.70;99201.13;105052;1258;96941;-83
2023/03/17 08:07:39;;;;;;;37.60;18.60;;;;;;;4.48;60.70;99201.77;105146;1257;96556;-83
2023/03/17 08:10:10;;;;;;;34.80;16.50;;;;;;;4.60;59.34;99197.71;105063;1267;109633;-81
2023/03/17 08:12:38;;;;;;;37.10;16.80;;;;;;;4.74;58.52;99197.39;105005;1257;97178;-80
2023/03/17 08:15:06;;;;;;;33.00;15.40;;;;;;;5.02;60.38;99196.23;105166;1257;106532;-82
2023/03/17 08:17:35;;;;;;;37.20;17.00;;;;;;;5.50;57.45;99187.96;105146;1257;96624;-82
2023/03/17 08:20:03;;;;;;;62.00;26.50;;;;;;;5.72;57.14;99184.98;105021;1254;96629;-79
2023/03/17 08:22:31;;;;;;;47.20;25.00;;;;;;;6.13;57.07;99181.15;105100;1265;109918;-83
2023/03/17 08:24:58;;;;;;;25.40;13.70;;;;;;;6.57;55.64;99177.13;105091;1260;96562;-83
2023/03/17 08:27:25;;;;;;;24.30;12.30;;;;;;;6.93;52.37;99173.84;104963;1258;96664;-83
2023/03/17 08:29:52;;;;;;;18.80;9.50;;;;;;;7.37;51.60;99171.27;104952;1254;96553;-78
2023/03/17 08:32:19;;;;;;;20.90;10.30;;;;;;;7.78;50.23;99165.23;104975;1258;97391;-84
2023/03/17 08:34:47;;;;;;;16.10;9.60;;;;;;;8.13;51.15;99163.14;104997;1263;96571;-81
2023/03/17 08:37:14;;;;;;;22.20;9.50;;;;;;;8.46;48.08;99159.97;104942;1260;97075;-83
2023/03/17 08:39:41;;;;;;;21.70;9.40;;;;;;;8.65;48.20;99154.41;104921;1254;97469;-87
2023/03/17 08:42:08;;;;;;;24.90;10.70;;;;;;;8.97;46.36;99153.27;105007;1254;96581;-85
2023/03/17 08:44:36;;;;;;;19.00;9.30;;;;;;;9.13;45.11;99154.81;105063;1257;96650;-71
2023/03/17 08:47:03;;;;;;;18.00;9.20;;;;;;;9.34;44.05;99152.77;105060;1259;96499;-83
2023/03/17 08:49:33;;;;;;;15.20;8.40;;;;;;;9.37;44.59;99150.09;105078;1257;96556;-85
2023/03/17 08:52:01;;;;;;;18.70;9.80;;;;;;;9.51;42.81;99148.67;105042;1271;108654;-84
2023/03/17 08:54:29;;;;;;;22.90;11.30;;;;;;;9.76;42.36;99144.14;105076;1258;96683;-84
2023/03/17 08:56:57;;;;;;;16.30;8.90;;;;;;;10.00;42.46;99146.32;105023;1257;96610;-81
2023/03/17 08:59:24;;;;;;;28.90;14.20;;;;;;;10.28;42.09;99149.05;105137;1258;110407;-82
2023/03/17 09:01:51;;;;;;;25.00;11.50;;;;;;;10.50;39.91;99146.67;105443;1254;96674;-80
2023/03/17 09:04:19;;;;;;;20.90;11.80;;;;;;;10.50;40.56;99142.35;106295;1257;96593;-71
2023/03/17 09:06:46;;;;;;;26.40;12.10;;;;;;;10.65;40.16;99137.36;105327;1257;97484;-67
2023/03/17 09:09:29;;;;;;;68.60;22.80;;;;;;;10.96;41.79;99145.06;106545;1257;97235;-79
2023/03/17 09:11:57;;;;;;;20.20;10.60;;;;;;;11.45;40.89;99147.04;105621;1254;109897;-74
2023/03/17 09:14:24;;;;;;;19.30;10.90;;;;;;;11.68;38.99;99145.14;105055;1258;96603;-88
2023/03/17 09:16:51;;;;;;;50.70;19.00;;;;;;;11.92;39.81;99146.54;105070;1267;96660;-87
2023/03/17 09:19:19;;;;;;;43.60;15.40;;;;;;;12.19;37.59;99145.49;105052;1259;96657;-88
2023/03/17 09:21:47;;;;;;;14.00;8.20;;;;;;;12.37;36.96;99140.88;104629;1264;97767;-89
2023/03/17 09:24:14;;;;;;;15.40;9.30;;;;;;;12.55;36.57;99139.20;104588;1272;110846;-88
2023/03/17 09:26:42;;;;;;;10.70;6.60;;;;;;;12.80;35.92;99133.34;104620;1260;98133;-79
2023/03/17 09:29:09;;;;;;;9.80;4.50;;;;;;;12.96;35.48;99130.98;104575;1264;108608;-89
2023/03/17 09:31:36;;;;;;;12.30;4.80;;;;;;;13.24;34.11;99128.92;104574;1264;96765;-78
2023/03/17 09:34:05;;;;;;;7.70;4.00;;;;;;;13.54;32.93;99122.65;104518;1263;97776;-86
2023/03/17 09:36:32;;;;;;;9.70;5.00;;;;;;;13.71;32.03;99115.38;104330;1266;110456;-88
2023/03/17 09:39:00;;;;;;;12.30;5.60;;;;;;;13.86;31.64;99115.80;104580;1264;97202;-82
2023/03/17 09:41:55;;;;;;;8.80;5.60;;;;;;;14.04;31.47;99113.27;105017;1267;107530;-87
2023/03/17 09:44:49;;;;;;;9.60;4.00;;;;;;;14.16;30.65;99110.81;104371;1267;96739;-86
2023/03/17 09:47:34;;;;;;;5.10;3.20;;;;;;;14.18;29.42;99107.27;104612;1261;97362;-77
2023/03/17 09:50:09;;;;;;;8.50;3.80;;;;;;;14.05;29.24;99110.19;104578;1274;109909;-87
2023/03/17 09:52:37;;;;;;;10.40;5.10;;;;;;;13.95;29.21;99113.84;104527;1265;97279;-85
2023/03/17 09:55:11;;;;;;;5.30;3.40;;;;;;;13.98;29.13;99108.48;104536;1260;108640;-81
2023/03/17 09:57:39;;;;;;;7.10;3.30;;;;;;;13.90;27.81;99105.91;104598;1263;96700;-78
2023/03/17 10:00:21;;;;;;;6.10;3.50;;;;;;;13.54;28.23;99101.96;104555;1264;96726;-87
2023/03/17 10:02:48;;;;;;;7.80;4.30;;;;;;;13.46;28.54;99107.36;104586;1274;110796;-82
2023/03/17 10:05:16;;;;;;;14.40;9.60;;;;;;;13.42;28.23;99107.33;104619;1263;97169;-83
2023/03/17 10:08:08;;;;;;;5.90;3.60;;;;;;;13.50;29.73;99101.76;104531;1265;96587;-80
2023/03/17 10:11:33;;;;;;;12.30;6.00;;;;;;;13.75;28.82;99092.89;104645;1261;96728;-80
2023/03/17 10:14:16;;;;;;;8.60;3.80;;;;;;;13.91;28.54;99094.37;104509;1264;96725;-72
2023/03/17 10:16:55;;;;;;;5.60;3.00;;;;;;;14.05;28.25;99089.79;104563;1272;110818;-81
2023/03/17 10:19:34;;;;;;;5.30;3.50;;;;;;;14.04;26.82;99087.45;104568;1264;99206;-81
2023/03/17 10:22:56;;;;;;;7.60;3.50;;;;;;;13.87;27.08;99087.35;104987;1257;107113;-81
2023/03/17 10:25:37;;;;;;;9.20;6.20;;;;;;;13.95;28.34;99080.23;104945;1260;96616;-83
2023/03/17 10:28:28;;;;;;;8.20;4.30;;;;;;;14.07;27.03;99081.52;105058;1254;96561;-81
2023/03/17 10:31:20;;;;;;;7.30;4.30;;;;;;;13.83;27.33;99087.67;105009;1266;109902;-82
2023/03/17 10:34:28;;;;;;;8.30;4.50;;;;;;;14.02;27.73;99083.84;104930;1257;97762;-82
2023/03/17 10:37:35;;;;;;;7.60;3.50;;;;;;;14.21;26.55;99091.96;105007;1257;107556;-69
2023/03/17 10:40:24;;;;;;;5.70;3.50;;;;;;;14.19;26.88;99089.52;105027;1262;96643;-80
2023/03/17 10:43:11;;;;;;;6.10;4.10;;;;;;;14.45;27.15;99090.86;104993;1254;96492;-75
2023/03/17 10:45:45;;;;;;;8.40;4.30;;;;;;;14.74;26.90;99091.25;104717;1255;107437;-77
2023/03/17 10:48:18;;;;;;;5.30;3.20;;;;;;;14.94;27.19;99080.50;104878;1261;97366;-80
2023/03/17 10:50:55;;;;;;;7.90;3.40;;;;;;;14.96;25.75;99071.57;104959;1268;107590;-79
2023/03/17 10:53:38;;;;;;;5.90;4.10;;;;;;;14.94;26.41;99066.54;104974;1276;96634;-78
2023/03/17 10:56:25;;;;;;;6.40;3.20;;;;;;;15.12;26.32;99057.89;105050;1257;97177;-77
2023/03/17 10:59:24;;;;;;;9.10;3.70;;;;;;;15.29;24.85;99039.40;105053;1257;110894;-67
2023/03/17 11:01:56;;;;;;;5.40;2.80;;;;;;;15.30;24.74;99022.56;105108;1255;96946;-76
2023/03/17 11:04:36;;;;;;;11.10;6.10;;;;;;;15.18;25.38;99020.05;105019;1260;106269;-76
2023/03/17 11:07:15;;;;;;;9.90;3.80;;;;;;;15.27;24.96;99023.63;104953;1257;97524;-72
2023/03/17 11:09:47;;;;;;;6.50;3.40;;;;;;;15.13;25.17;99032.95;104985;1258;97799;-74
2023/03/17 11:12:38;;;;;;;4.20;2.70;;;;;;;15.07;24.40;99040.30;104828;1272;108585;-73
2023/03/17 11:15:12;;;;;;;5.20;3.10;;;;;;;14.76;24.50;99035.55;104917;1257;98106;-75
2023/03/17 11:17:57;;;;;;;11.10;4.80;;;;;;;14.46;24.52;99024.16;105027;1255;108333;-83
2023/03/17 11:21:00;;;;;;;10.90;4.40;;;;;;;14.48;25.36;99027.86;105023;1270;96581;-75
2023/03/17 11:24:00;;;;;;;7.70;3.30;;;;;;;14.68;25.63;99027.73;105053;1257;97408;-77
2023/03/17 11:26:30;;;;;;;7.40;4.10;;;;;;;14.96;25.72;99028.36;105096;1257;110892;-77